New Bedford, Ohio
Current Conditions -  °F | °C
As of 7:53 PM on Saturday 22 Nov 2014 (Local Time) from KPHD Reporting Station
Light Rain Light Rain  
Wind Chill: 47°   Ceiling: 6500
Heat Index: 49°   Visibility: 10mi
Dew Point: 31°   Wind: 6mph
Humidity: 50%   Direction: 200°SSW
Pressure: 30.11"   Gusts: NA
Location:  40.3648°N, 81.765°W
Report Text: KPHD 230053Z AUTO 20005KT 10SM -RA BKN065 OVC090 09/M01 A3011 RMK AO2 RAB48 SLP203 P0000 T00941006
Loading
Personal Weather Stations






























Interactive Weather Map New forecast layout! Learn more

10-Day Weather Forecast

Advertisements
Track Severe Weather on mobile